createdAt,value
2022-12-26T00:00:51.481Z,91.52
2022-12-26T00:03:17.834Z,90.22
2022-12-26T00:05:44.372Z,89.64
2022-12-26T00:08:10.779Z,88.74
2022-12-26T00:10:38.567Z,89.45
2022-12-26T00:13:40.307Z,89.25
2022-12-26T00:15:51.487Z,89.77
2022-12-26T00:18:17.947Z,89.84
2022-12-26T00:20:44.410Z,89.59
2022-12-26T00:23:10.833Z,89.94
2022-12-26T00:25:38.578Z,89.89
2022-12-26T00:28:05.106Z,89.76
2022-12-26T00:30:31.527Z,90.51
2022-12-26T00:32:57.978Z,88.55
2022-12-26T00:35:24.419Z,88.68
2022-12-26T00:37:50.897Z,90.16
2022-12-26T00:40:18.612Z,89.73
2022-12-26T00:42:46.401Z,89.62
2022-12-26T00:45:12.806Z,89.68
2022-12-26T00:47:39.208Z,90.07
2022-12-26T00:50:14.073Z,89.91
2022-12-26T00:52:41.606Z,88.92
2022-12-26T00:55:09.306Z,88.52
2022-12-26T00:57:35.725Z,89.62
2022-12-26T01:00:04.237Z,89.95
2022-12-26T01:02:30.792Z,90.14
2022-12-26T01:04:57.828Z,89.60
2022-12-26T01:07:24.771Z,89.55
2022-12-26T01:09:51.180Z,89.72
2022-12-26T01:12:17.641Z,89.04
2022-12-26T01:14:44.379Z,90.55
2022-12-26T01:17:12.146Z,90.12
2022-12-26T01:19:38.559Z,90.93
2022-12-26T01:22:05.008Z,89.33
2022-12-26T01:24:31.418Z,89.93
2022-12-26T01:26:57.799Z,89.66
2022-12-26T01:29:24.209Z,89.73
2022-12-26T01:31:50.736Z,89.96
2022-12-26T01:34:18.580Z,89.65
2022-12-26T01:36:44.989Z,89.64
2022-12-26T01:39:11.387Z,89.33
2022-12-26T01:41:37.819Z,88.97
2022-12-26T01:44:06.138Z,89.32
2022-12-26T01:46:38.303Z,89.08
2022-12-26T01:49:13.315Z,89.10
2022-12-26T01:51:44.747Z,88.97
2022-12-26T01:54:41.208Z,88.37
2022-12-26T01:57:01.202Z,88.74
2022-12-26T01:59:32.922Z,88.33
2022-12-26T02:02:00.374Z,87.28
2022-12-26T02:04:32.928Z,88.66
2022-12-26T02:07:04.175Z,88.47
2022-12-26T02:09:31.133Z,88.90
2022-12-26T02:12:35.917Z,88.36
2022-12-26T02:14:49.651Z,88.07
2022-12-26T02:17:16.888Z,87.94
2022-12-26T02:19:54.600Z,88.10
2022-12-26T02:22:41.205Z,89.05
2022-12-26T02:25:43.032Z,88.42
2022-12-26T02:28:36.352Z,88.21
2022-12-26T02:31:07.480Z,88.39
2022-12-26T02:33:44.155Z,88.24
2022-12-26T02:36:42.545Z,88.26
2022-12-26T02:39:45.542Z,88.25
2022-12-26T02:42:18.620Z,88.91
2022-12-26T02:44:54.014Z,89.54
2022-12-26T02:47:30.061Z,88.78
2022-12-26T02:50:04.025Z,88.43
2022-12-26T02:52:39.050Z,89.01
2022-12-26T02:55:09.426Z,89.38
2022-12-26T02:57:41.605Z,91.13
2022-12-26T03:00:13.756Z,89.99
2022-12-26T03:02:47.245Z,89.73
2022-12-26T03:05:21.574Z,89.60
2022-12-26T03:07:48.518Z,90.34
2022-12-26T03:10:18.330Z,90.73
2022-12-26T03:12:50.219Z,91.90
2022-12-26T03:15:20.588Z,90.03
2022-12-26T03:17:52.931Z,90.86
2022-12-26T03:20:23.877Z,90.71
2022-12-26T03:22:54.588Z,90.33
2022-12-26T03:25:29.917Z,89.68
2022-12-26T03:27:57.641Z,90.19
2022-12-26T03:30:24.714Z,91.27
2022-12-26T03:32:55.196Z,91.88
2022-12-26T03:35:22.372Z,93.22
2022-12-26T03:37:53.316Z,94.66
2022-12-26T03:40:38.414Z,94.70
2022-12-26T03:43:15.520Z,95.11
2022-12-26T03:45:50.720Z,95.05
2022-12-26T03:48:26.288Z,95.55
2022-12-26T03:50:59.679Z,94.83
2022-12-26T03:53:31.192Z,95.90
2022-12-26T03:56:06.471Z,95.23
2022-12-26T03:58:41.121Z,96.12
2022-12-26T04:01:12.518Z,95.34
2022-12-26T04:03:43.770Z,96.26
2022-12-26T04:06:18.528Z,96.27
2022-12-26T04:08:49.891Z,96.38
2022-12-26T04:11:20.047Z,97.83
2022-12-26T04:13:54.450Z,96.69
2022-12-26T04:16:30.309Z,97.20
2022-12-26T04:19:05.853Z,96.01
2022-12-26T04:21:39.676Z,98.20
2022-12-26T04:24:12.009Z,98.09
2022-12-26T04:26:44.002Z,98.15
2022-12-26T04:29:10.488Z,97.74
2022-12-26T04:31:45.748Z,98.50
2022-12-26T04:34:21.656Z,98.19
2022-12-26T04:36:53.929Z,98.24
2022-12-26T04:39:26.114Z,97.87
2022-12-26T04:41:54.342Z,97.64
2022-12-26T04:44:23.638Z,98.76
2022-12-26T04:46:52.314Z,98.11
2022-12-26T04:49:20.268Z,98.43
2022-12-26T04:51:46.649Z,98.97
2022-12-26T04:54:13.057Z,99.92
2022-12-26T04:56:39.453Z,100.00
2022-12-26T04:59:05.851Z,99.84
2022-12-26T05:01:32.391Z,99.97
2022-12-26T05:03:58.959Z,99.51
2022-12-26T05:06:26.725Z,99.53
2022-12-26T05:08:53.152Z,100.00
2022-12-26T05:11:19.605Z,100.00
2022-12-26T05:13:46.073Z,100.00
2022-12-26T05:16:12.678Z,100.00
2022-12-26T05:18:39.105Z,100.00
2022-12-26T05:21:07.564Z,100.00
2022-12-26T05:23:35.405Z,100.00
2022-12-26T05:26:02.361Z,100.00
2022-12-26T05:28:29.061Z,100.00
2022-12-26T05:30:55.511Z,100.00
2022-12-26T05:33:21.992Z,100.00
2022-12-26T05:35:49.604Z,100.00
2022-12-26T05:38:16.059Z,100.00
2022-12-26T05:40:43.844Z,100.00
2022-12-26T05:43:10.211Z,100.00
2022-12-26T05:45:36.675Z,100.00
2022-12-26T05:48:03.457Z,100.00
2022-12-26T05:50:29.939Z,100.00
2022-12-26T05:52:56.712Z,100.00
2022-12-26T05:55:23.154Z,100.00
2022-12-26T05:57:51.076Z,100.00
2022-12-26T06:00:17.760Z,100.00
2022-12-26T06:02:44.410Z,100.00
2022-12-26T06:05:10.902Z,100.00
2022-12-26T06:07:37.793Z,100.00
2022-12-26T06:10:05.175Z,100.00
2022-12-26T06:12:31.675Z,100.00
2022-12-26T06:14:59.421Z,100.00
2022-12-26T06:17:25.871Z,100.00
2022-12-26T06:19:52.278Z,100.00
2022-12-26T06:22:18.763Z,100.00
2022-12-26T06:24:45.194Z,100.00
2022-12-26T06:27:11.617Z,100.00
2022-12-26T06:29:38.069Z,100.00
2022-12-26T06:32:06.039Z,100.00
2022-12-26T06:34:32.443Z,100.00
2022-12-26T06:36:58.867Z,100.00
2022-12-26T06:39:25.264Z,100.00
2022-12-26T06:41:52.776Z,100.00
2022-12-26T06:44:19.258Z,100.00
2022-12-26T06:46:45.775Z,100.00
2022-12-26T06:49:13.706Z,100.00
2022-12-26T06:51:40.231Z,100.00
2022-12-26T06:54:06.996Z,100.00
2022-12-26T06:56:33.448Z,100.00
2022-12-26T06:59:01.421Z,100.00
2022-12-26T07:01:30.255Z,100.00
2022-12-26T07:03:57.440Z,100.00
2022-12-26T07:06:27.535Z,100.00
2022-12-26T07:08:57.637Z,100.00
2022-12-26T07:11:26.114Z,100.00
2022-12-26T07:13:53.768Z,100.00
2022-12-26T07:16:20.767Z,99.84
2022-12-26T07:18:47.300Z,100.00
2022-12-26T07:21:15.660Z,100.00
2022-12-26T07:23:43.438Z,99.94
2022-12-26T07:26:09.995Z,100.00
2022-12-26T07:28:37.673Z,100.00
2022-12-26T07:31:04.748Z,100.00
2022-12-26T07:33:31.861Z,100.00
2022-12-26T07:35:59.323Z,100.00
2022-12-26T07:38:25.753Z,100.00
2022-12-26T07:40:54.815Z,100.00
2022-12-26T07:43:21.126Z,100.00
2022-12-26T07:45:50.356Z,100.00
2022-12-26T07:48:16.928Z,99.60
2022-12-26T07:50:43.626Z,100.00
2022-12-26T07:53:10.051Z,100.00
2022-12-26T07:55:36.477Z,99.14
2022-12-26T07:58:04.240Z,100.00
2022-12-26T08:00:30.668Z,99.81
2022-12-26T08:03:02.842Z,99.85
2022-12-26T08:05:33.116Z,100.00
2022-12-26T08:07:59.577Z,100.00
2022-12-26T08:10:26.022Z,99.37
2022-12-26T08:12:52.468Z,98.90
2022-12-26T08:15:20.262Z,97.15
2022-12-26T08:17:46.690Z,96.42
2022-12-26T08:20:13.113Z,96.49
2022-12-26T08:22:39.560Z,95.85
2022-12-26T08:25:07.999Z,96.12
2022-12-26T08:27:34.446Z,94.74
2022-12-26T08:30:00.889Z,94.36
2022-12-26T08:32:28.763Z,94.55
2022-12-26T08:34:55.215Z,96.61
2022-12-26T08:37:21.751Z,95.53
2022-12-26T08:39:48.854Z,94.87
2022-12-26T08:42:15.297Z,94.96
2022-12-26T08:44:41.739Z,93.51
2022-12-26T08:47:08.151Z,93.44
2022-12-26T08:49:35.977Z,93.15
2022-12-26T08:52:02.533Z,92.20
2022-12-26T08:54:28.953Z,92.39
2022-12-26T08:56:55.516Z,91.77
2022-12-26T08:59:23.058Z,91.56
2022-12-26T09:01:49.616Z,91.95
2022-12-26T09:04:16.168Z,92.13
2022-12-26T09:06:44.189Z,92.25
2022-12-26T09:09:11.870Z,91.81
2022-12-26T09:11:39.491Z,92.11
2022-12-26T09:14:06.527Z,91.60
2022-12-26T09:16:38.648Z,91.66
2022-12-26T09:19:09.200Z,90.38
2022-12-26T09:21:35.683Z,90.08
2022-12-26T09:24:05.450Z,90.49
2022-12-26T09:26:32.316Z,90.28
2022-12-26T09:28:59.345Z,91.15
2022-12-26T09:31:28.116Z,92.13
2022-12-26T09:33:54.984Z,91.20
2022-12-26T09:36:23.232Z,91.05
2022-12-26T09:38:50.179Z,91.21
2022-12-26T09:41:43.955Z,89.63
2022-12-26T09:44:17.388Z,89.24
2022-12-26T09:46:50.512Z,89.52
2022-12-26T09:49:20.092Z,89.86
2022-12-26T09:51:51.670Z,89.10
2022-12-26T09:54:26.472Z,88.95
2022-12-26T09:57:02.907Z,88.54
2022-12-26T09:59:37.912Z,88.13
2022-12-26T10:02:04.578Z,87.58
2022-12-26T10:04:31.124Z,87.54
2022-12-26T10:07:07.557Z,86.75
2022-12-26T10:09:52.625Z,86.74
2022-12-26T10:12:35.491Z,85.91
2022-12-26T10:15:12.579Z,86.81
2022-12-26T10:17:44.380Z,84.95
2022-12-26T10:20:21.862Z,84.41
2022-12-26T10:23:09.968Z,84.41
2022-12-26T10:25:45.691Z,84.21
2022-12-26T10:28:21.467Z,84.14
2022-12-26T10:30:50.564Z,84.63
2022-12-26T10:33:18.383Z,84.20
2022-12-26T10:35:46.051Z,85.08
2022-12-26T10:38:25.697Z,84.58
2022-12-26T10:40:56.146Z,85.45
2022-12-26T10:43:28.441Z,84.21
2022-12-26T10:46:13.188Z,84.75
2022-12-26T10:48:39.944Z,84.49
2022-12-26T10:51:06.423Z,83.76
2022-12-26T10:53:42.298Z,83.18
2022-12-26T10:56:14.660Z,81.89
2022-12-26T10:58:45.397Z,82.28
2022-12-26T11:01:32.581Z,82.25
2022-12-26T11:04:00.889Z,82.47
2022-12-26T11:06:31.762Z,82.71
2022-12-26T11:08:59.148Z,82.46
2022-12-26T11:11:27.491Z,81.71
2022-12-26T11:14:02.068Z,82.10
2022-12-26T11:16:31.975Z,82.19
2022-12-26T11:18:58.921Z,83.07
2022-12-26T11:21:27.550Z,81.14
2022-12-26T11:24:11.079Z,81.09
2022-12-26T11:26:38.220Z,80.59
2022-12-26T11:29:10.897Z,80.68
2022-12-26T11:31:39.087Z,80.54
2022-12-26T11:34:08.664Z,81.60
2022-12-26T11:36:37.396Z,81.86
2022-12-26T11:39:07.399Z,81.00
2022-12-26T11:41:37.082Z,80.60
2022-12-26T11:44:30.107Z,79.81
2022-12-26T11:47:00.050Z,80.67
2022-12-26T11:49:31.909Z,80.24
2022-12-26T11:52:00.208Z,80.53
2022-12-26T11:54:30.607Z,81.80
2022-12-26T11:57:17.347Z,80.31
2022-12-26T11:59:45.832Z,79.90
2022-12-26T12:02:17.382Z,80.84
2022-12-26T12:04:45.142Z,80.44
2022-12-26T12:07:20.919Z,80.62
2022-12-26T12:09:53.896Z,80.95
2022-12-26T12:12:25.553Z,81.47
2022-12-26T12:15:03.044Z,81.30
2022-12-26T12:17:34.600Z,82.20
2022-12-26T12:20:17.697Z,81.99
2022-12-26T12:22:59.156Z,81.02
2022-12-26T12:25:40.525Z,81.73
2022-12-26T12:28:27.283Z,82.10
2022-12-26T12:31:03.296Z,82.83
2022-12-26T12:33:45.120Z,82.13
2022-12-26T12:36:15.837Z,82.91
2022-12-26T12:38:58.637Z,83.82
2022-12-26T12:41:42.400Z,84.61
2022-12-26T12:44:14.202Z,84.55
2022-12-26T12:46:54.046Z,84.66
2022-12-26T12:49:38.369Z,84.02
2022-12-26T12:52:19.805Z,84.78
2022-12-26T12:55:24.056Z,84.76
2022-12-26T12:57:56.315Z,84.68
2022-12-26T13:00:26.491Z,85.20
2022-12-26T13:03:00.125Z,85.18
2022-12-26T13:05:38.387Z,85.06
2022-12-26T13:08:11.116Z,85.64
2022-12-26T13:10:46.125Z,85.98
2022-12-26T13:13:21.681Z,85.35
2022-12-26T13:15:52.621Z,86.25
2022-12-26T13:18:23.714Z,86.36
2022-12-26T13:20:53.284Z,87.55
2022-12-26T13:23:27.205Z,89.00
2022-12-26T13:26:06.361Z,91.71
2022-12-26T13:28:39.834Z,91.74
2022-12-26T13:31:06.399Z,92.81
2022-12-26T13:33:34.969Z,93.11
2022-12-26T13:36:03.617Z,93.43
2022-12-26T13:39:03.325Z,94.80
2022-12-26T13:41:31.679Z,94.61
2022-12-26T13:44:04.269Z,95.10
2022-12-26T13:46:54.677Z,95.80
2022-12-26T13:49:34.746Z,94.56
2022-12-26T13:52:15.931Z,94.79
2022-12-26T13:55:27.907Z,94.56
2022-12-26T13:58:22.380Z,96.35
2022-12-26T14:00:50.556Z,95.75
2022-12-26T14:03:36.308Z,91.35
2022-12-26T14:06:54.022Z,91.63
2022-12-26T14:09:49.594Z,92.56
2022-12-26T14:12:31.112Z,93.10
2022-12-26T14:15:15.962Z,91.37
2022-12-26T14:17:51.931Z,91.79
2022-12-26T14:20:38.852Z,90.14
2022-12-26T14:23:21.332Z,89.71
2022-12-26T14:25:54.625Z,90.32
2022-12-26T14:28:27.690Z,89.74
2022-12-26T14:31:07.158Z,88.87
2022-12-26T14:33:44.723Z,88.98
2022-12-26T14:36:22.609Z,87.62
2022-12-26T14:38:57.717Z,87.78
2022-12-26T14:41:24.702Z,88.17
2022-12-26T14:43:56.365Z,87.62
2022-12-26T14:46:59.705Z,88.08
2022-12-26T14:49:37.863Z,86.59
2022-12-26T14:52:36.228Z,87.94
2022-12-26T14:55:40.932Z,87.39
2022-12-26T14:58:25.005Z,85.83
2022-12-26T15:00:52.541Z,87.69
2022-12-26T15:03:56.833Z,88.68
2022-12-26T15:06:50.287Z,87.13
2022-12-26T15:09:38.726Z,88.37
2022-12-26T15:12:29.272Z,88.11
2022-12-26T15:15:22.578Z,89.36
2022-12-26T15:18:03.942Z,87.03
2022-12-26T15:21:03.586Z,83.37
2022-12-26T15:23:45.828Z,79.69
2022-12-26T15:26:36.477Z,79.00
2022-12-26T15:29:21.117Z,79.48
2022-12-26T15:31:57.961Z,78.83
2022-12-26T15:34:47.354Z,77.49
2022-12-26T15:37:24.366Z,78.95
2022-12-26T15:39:59.389Z,78.32
2022-12-26T15:42:39.915Z,79.50
2022-12-26T15:45:27.929Z,79.98
2022-12-26T15:48:02.582Z,77.08
2022-12-26T15:50:32.789Z,78.39
2022-12-26T15:53:23.464Z,78.12
2022-12-26T15:56:07.379Z,79.17
2022-12-26T15:58:53.905Z,79.13
2022-12-26T16:01:36.733Z,80.41
2022-12-26T16:04:07.555Z,83.02
2022-12-26T16:06:49.580Z,83.76
2022-12-26T16:09:26.703Z,81.72
2022-12-26T16:11:55.769Z,81.19
2022-12-26T16:14:26.444Z,82.54
2022-12-26T16:16:54.808Z,81.46
2022-12-26T16:19:25.896Z,82.61
2022-12-26T16:21:57.726Z,82.74
2022-12-26T16:24:26.568Z,83.46
2022-12-26T16:26:53.128Z,82.84
2022-12-26T16:29:21.035Z,85.10
2022-12-26T16:31:47.664Z,84.02
2022-12-26T16:34:18.256Z,84.42
2022-12-26T16:36:45.354Z,83.75
2022-12-26T16:39:12.736Z,84.78
2022-12-26T16:41:57.891Z,83.86
2022-12-26T16:44:30.734Z,83.97
2022-12-26T16:47:00.563Z,84.90
2022-12-26T16:49:29.934Z,86.01
2022-12-26T16:51:56.441Z,85.15
2022-12-26T16:54:29.277Z,86.12
2022-12-26T16:57:04.083Z,85.73
2022-12-26T16:59:40.227Z,84.74
2022-12-26T17:02:15.180Z,84.28
2022-12-26T17:04:54.342Z,84.60
2022-12-26T17:07:24.966Z,84.66
2022-12-26T17:09:59.246Z,84.78
2022-12-26T17:12:28.706Z,84.84
2022-12-26T17:14:58.418Z,83.83
2022-12-26T17:17:36.310Z,84.28
2022-12-26T17:20:37.948Z,83.30
2022-12-26T17:23:34.643Z,83.71
2022-12-26T17:26:19.207Z,82.59
2022-12-26T17:28:45.678Z,83.77
2022-12-26T17:31:16.475Z,83.66
2022-12-26T17:33:47.905Z,83.58
2022-12-26T17:39:11.402Z,83.65
2022-12-26T17:41:41.981Z,82.04
2022-12-26T17:44:39.412Z,82.08
2022-12-26T17:47:15.703Z,81.57
2022-12-26T17:49:42.447Z,81.71
2022-12-26T17:52:11.500Z,82.25
2022-12-26T17:54:37.982Z,83.38
2022-12-26T17:57:04.554Z,82.90
2022-12-26T17:59:30.993Z,82.02
2022-12-26T18:01:57.535Z,80.88
2022-12-26T18:04:24.002Z,82.57
2022-12-26T18:06:50.475Z,81.21
2022-12-26T18:09:26.071Z,80.52
2022-12-26T18:11:53.124Z,81.14
2022-12-26T18:14:19.711Z,80.84
2022-12-26T18:16:47.210Z,81.10
2022-12-26T18:19:15.431Z,81.50
2022-12-26T18:21:42.645Z,80.40
2022-12-26T18:24:09.434Z,79.93
2022-12-26T18:26:37.463Z,79.66
2022-12-26T18:29:03.952Z,80.44
2022-12-26T18:31:30.489Z,80.63
2022-12-26T18:33:57.603Z,80.39
2022-12-26T18:36:29.638Z,80.65
2022-12-26T18:38:56.071Z,80.85
2022-12-26T18:41:22.492Z,80.52
2022-12-26T18:43:50.268Z,80.36
2022-12-26T18:46:18.338Z,80.26
2022-12-26T18:48:45.451Z,80.84
2022-12-26T18:51:12.267Z,81.12
2022-12-26T18:53:39.111Z,81.95
2022-12-26T18:56:06.191Z,82.47
2022-12-26T18:58:32.811Z,81.72
2022-12-26T19:01:02.708Z,81.76
2022-12-26T19:03:29.257Z,82.77
2022-12-26T19:05:55.695Z,82.82
2022-12-26T19:08:22.129Z,83.33
2022-12-26T19:10:48.606Z,83.36
2022-12-26T19:13:16.088Z,83.73
2022-12-26T19:15:45.521Z,84.14
2022-12-26T19:18:13.448Z,84.05
2022-12-26T19:20:44.136Z,84.69
2022-12-26T19:23:10.999Z,84.44
2022-12-26T19:25:37.431Z,86.40
2022-12-26T19:28:03.960Z,85.70
2022-12-26T19:30:35.198Z,85.65
2022-12-26T19:33:05.078Z,85.81
2022-12-26T19:35:32.964Z,85.10
2022-12-26T19:37:59.436Z,85.51
2022-12-26T19:40:25.943Z,84.92
2022-12-26T19:42:52.803Z,85.29
2022-12-26T19:45:19.327Z,83.52
2022-12-26T19:47:45.774Z,84.37
2022-12-26T19:50:12.612Z,83.77
2022-12-26T19:52:40.481Z,85.05
2022-12-26T19:55:10.172Z,83.71
2022-12-26T19:57:36.603Z,84.14
2022-12-26T20:00:04.273Z,83.41
2022-12-26T20:02:38.947Z,83.73
2022-12-26T20:05:06.573Z,84.43
2022-12-26T20:07:33.370Z,83.04
2022-12-26T20:10:01.171Z,83.83
2022-12-26T20:12:27.600Z,83.62
2022-12-26T20:14:54.038Z,82.74
2022-12-26T20:17:20.506Z,83.69
2022-12-26T20:19:47.816Z,83.40
2022-12-26T20:22:14.295Z,82.55
2022-12-26T20:24:40.807Z,82.17
2022-12-26T20:27:08.577Z,82.72
2022-12-26T20:29:35.023Z,81.60
2022-12-26T20:32:01.434Z,81.27
2022-12-26T20:34:27.899Z,81.97
2022-12-26T20:36:54.340Z,81.03
2022-12-26T20:39:21.120Z,82.18
2022-12-26T20:41:47.590Z,81.89
2022-12-26T20:44:16.570Z,82.18
2022-12-26T20:46:44.055Z,81.61
2022-12-26T20:49:10.687Z,82.44
2022-12-26T20:51:39.368Z,82.28
2022-12-26T20:54:06.961Z,81.52
2022-12-26T20:56:33.579Z,81.56
2022-12-26T20:59:00.184Z,82.28
2022-12-26T21:01:28.681Z,81.99
2022-12-26T21:03:56.469Z,82.20
2022-12-26T21:06:27.268Z,81.00
2022-12-26T21:08:54.710Z,82.03
2022-12-26T21:11:23.547Z,81.34
2022-12-26T21:13:51.768Z,82.20
2022-12-26T21:16:20.873Z,81.97
2022-12-26T21:18:48.855Z,81.55
2022-12-26T21:21:18.075Z,82.46
2022-12-26T21:23:44.796Z,82.31
2022-12-26T21:26:11.383Z,82.05
2022-12-26T21:28:38.365Z,82.85
2022-12-26T21:31:07.216Z,83.29
2022-12-26T21:33:35.868Z,83.43
2022-12-26T21:36:09.885Z,82.26
2022-12-26T21:38:36.583Z,82.80
2022-12-26T21:41:05.946Z,81.93
2022-12-26T21:43:32.370Z,82.65
2022-12-26T21:46:01.348Z,82.59
2022-12-26T21:48:28.059Z,83.71
2022-12-26T21:50:54.509Z,82.44
2022-12-26T21:53:22.306Z,82.30
2022-12-26T21:55:48.759Z,82.20
2022-12-26T21:58:15.168Z,82.88
2022-12-26T22:00:41.790Z,83.01
2022-12-26T22:03:08.706Z,82.36
2022-12-26T22:05:37.583Z,83.06
2022-12-26T22:08:05.784Z,84.25
2022-12-26T22:10:35.152Z,83.21
2022-12-26T22:13:02.821Z,82.45
2022-12-26T22:15:29.358Z,82.28
2022-12-26T22:17:56.035Z,83.48
2022-12-26T22:20:23.283Z,83.06
2022-12-26T22:22:49.907Z,82.82
2022-12-26T22:25:16.528Z,83.08
2022-12-26T22:27:44.521Z,83.02
2022-12-26T22:30:11.919Z,82.26
2022-12-26T22:32:38.580Z,82.92
2022-12-26T22:35:05.833Z,82.54
2022-12-26T22:37:32.310Z,82.84
2022-12-26T22:39:58.764Z,82.26
2022-12-26T22:42:25.221Z,82.47
2022-12-26T22:44:53.069Z,82.05
2022-12-26T22:47:19.718Z,81.48
2022-12-26T22:49:46.168Z,82.18
2022-12-26T22:52:15.847Z,82.37
2022-12-26T22:54:42.621Z,82.71
2022-12-26T22:57:09.675Z,82.06
2022-12-26T23:00:06.897Z,82.60
2022-12-26T23:02:24.031Z,82.62
2022-12-26T23:04:51.143Z,82.33
2022-12-26T23:07:20.352Z,82.25
2022-12-26T23:09:47.060Z,83.38
2022-12-26T23:12:14.082Z,83.65
2022-12-26T23:14:40.767Z,82.92
2022-12-26T23:17:10.351Z,83.21
2022-12-26T23:19:43.515Z,84.04
2022-12-26T23:22:10.336Z,82.67
2022-12-26T23:24:36.797Z,82.90
2022-12-26T23:27:11.668Z,83.38
2022-12-26T23:29:38.330Z,83.76
2022-12-26T23:32:05.702Z,83.79
2022-12-26T23:34:32.185Z,83.50
2022-12-26T23:37:00.351Z,84.03
2022-12-26T23:39:26.904Z,84.39
2022-12-26T23:41:53.423Z,84.44
2022-12-26T23:44:19.921Z,84.08
2022-12-26T23:46:46.524Z,84.61
2022-12-26T23:49:13.788Z,83.54
2022-12-26T23:51:40.379Z,83.82
2022-12-26T23:54:08.787Z,84.45
2022-12-26T23:56:36.232Z,84.24
2022-12-26T23:59:03.005Z,84.12
